createdAt,value
2023-03-23T00:01:57.556Z,10.77
2023-03-23T00:07:01.675Z,10.76
2023-03-23T00:12:05.840Z,10.79
2023-03-23T00:17:10.035Z,10.85
2023-03-23T00:22:14.201Z,10.90
2023-03-23T00:27:18.356Z,10.93
2023-03-23T00:32:22.533Z,10.96
2023-03-23T00:37:24.751Z,11.03
2023-03-23T00:42:28.954Z,11.04
2023-03-23T00:47:31.256Z,11.03
2023-03-23T00:52:35.392Z,11.05
2023-03-23T00:57:39.551Z,11.12
2023-03-23T01:02:43.712Z,11.14
2023-03-23T01:07:47.882Z,11.21
2023-03-23T01:12:52.002Z,11.23
2023-03-23T01:17:56.189Z,11.29
2023-03-23T01:23:00.573Z,11.44
2023-03-23T01:28:04.506Z,11.40
2023-03-23T01:33:08.649Z,11.33
2023-03-23T01:38:12.812Z,11.31
2023-03-23T01:43:16.978Z,11.26
2023-03-23T01:48:21.173Z,11.25
2023-03-23T01:53:25.302Z,11.24
2023-03-23T01:58:29.453Z,11.21
2023-03-23T02:03:33.614Z,11.23
2023-03-23T02:08:37.802Z,11.23
2023-03-23T02:13:41.918Z,11.27
2023-03-23T02:18:46.101Z,11.27
2023-03-23T02:23:50.249Z,11.23
2023-03-23T02:28:54.451Z,11.24
2023-03-23T02:33:56.706Z,11.24
2023-03-23T02:39:00.865Z,11.20
2023-03-23T02:44:05.035Z,11.15
2023-03-23T02:49:07.309Z,11.08
2023-03-23T02:54:11.511Z,11.03
2023-03-23T02:59:15.607Z,10.99
2023-03-23T03:04:19.750Z,10.92
2023-03-23T03:09:23.951Z,10.89
2023-03-23T03:14:28.096Z,10.93
2023-03-23T03:19:32.661Z,10.95
2023-03-23T03:24:36.430Z,10.96
2023-03-23T03:29:40.621Z,10.96
2023-03-23T03:34:44.766Z,10.99
2023-03-23T03:39:48.888Z,11.02
2023-03-23T03:44:53.086Z,11.04
2023-03-23T03:49:57.218Z,11.05
2023-03-23T03:55:01.359Z,11.10
2023-03-23T04:00:05.558Z,11.20
2023-03-23T04:05:09.701Z,11.30
2023-03-23T04:10:13.864Z,11.31
2023-03-23T04:15:18.025Z,11.33
2023-03-23T04:20:32.083Z,11.33
2023-03-23T04:25:26.346Z,11.31
2023-03-23T04:30:30.525Z,11.29
2023-03-23T04:35:32.861Z,11.26
2023-03-23T04:40:36.938Z,11.25
2023-03-23T04:45:39.652Z,11.30
2023-03-23T04:50:43.373Z,11.27
2023-03-23T04:55:47.541Z,11.25
2023-03-23T05:00:51.738Z,11.22
2023-03-23T05:05:55.841Z,11.28
2023-03-23T05:11:00.018Z,11.31
2023-03-23T05:16:04.193Z,11.31
2023-03-23T05:21:08.404Z,11.32
2023-03-23T05:26:12.513Z,11.33
2023-03-23T05:31:16.648Z,11.37
2023-03-23T05:36:20.865Z,11.38
2023-03-23T05:41:25.213Z,11.38
2023-03-23T05:46:29.120Z,11.44
2023-03-23T05:51:33.303Z,11.49
2023-03-23T05:56:37.481Z,11.51
2023-03-23T06:01:41.695Z,11.52
2023-03-23T06:11:49.920Z,11.58
2023-03-23T06:16:54.077Z,11.60
2023-03-23T06:21:58.254Z,11.68
2023-03-23T06:27:02.397Z,11.71
2023-03-23T06:32:06.587Z,11.75
2023-03-23T06:37:08.865Z,11.78
2023-03-23T06:42:13.026Z,11.84
2023-03-23T06:47:15.269Z,11.90
2023-03-23T06:52:19.455Z,11.95
2023-03-23T06:57:23.608Z,12.00
2023-03-23T07:02:27.776Z,12.04
2023-03-23T07:07:31.941Z,12.10
2023-03-23T07:12:36.082Z,12.17
2023-03-23T07:17:40.239Z,12.18
2023-03-23T07:22:44.397Z,12.17
2023-03-23T07:27:48.563Z,12.20
2023-03-23T07:32:52.751Z,12.27
2023-03-23T07:37:56.917Z,12.36
2023-03-23T07:43:01.068Z,12.44
2023-03-23T07:48:09.780Z,12.45
2023-03-23T07:53:09.365Z,12.46
2023-03-23T07:58:13.587Z,12.52
2023-03-23T08:03:17.732Z,12.56
2023-03-23T08:08:21.852Z,12.63
2023-03-23T08:13:26.109Z,12.66
2023-03-23T08:18:30.194Z,12.70
2023-03-23T08:23:34.348Z,12.73
2023-03-23T08:28:38.480Z,12.81
2023-03-23T08:33:40.786Z,12.87
2023-03-23T08:38:44.924Z,12.90
2023-03-23T08:43:47.221Z,12.97
2023-03-23T08:53:55.550Z,13.09
2023-03-23T08:58:59.795Z,13.18
2023-03-23T09:04:03.839Z,13.11
2023-03-23T09:09:08.003Z,13.22
2023-03-23T09:14:12.168Z,13.33
2023-03-23T09:19:16.312Z,13.36
2023-03-23T09:24:20.509Z,13.39
2023-03-23T09:29:24.653Z,13.36
2023-03-23T09:34:28.834Z,13.35
2023-03-23T09:39:33.011Z,13.38
2023-03-23T09:44:37.122Z,13.44
2023-03-23T09:49:42.376Z,13.44
2023-03-23T09:54:45.458Z,13.50
2023-03-23T09:59:49.601Z,13.56
2023-03-23T10:04:53.754Z,13.62
2023-03-23T10:09:57.928Z,13.61
2023-03-23T10:15:02.094Z,13.61
2023-03-23T10:20:06.280Z,13.60
2023-03-23T10:25:10.425Z,13.36
2023-03-23T10:30:14.630Z,13.15
2023-03-23T10:35:16.889Z,12.44
2023-03-23T10:40:22.174Z,11.95
2023-03-23T10:45:25.174Z,11.60
2023-03-23T10:50:29.302Z,11.47
2023-03-23T10:55:31.611Z,11.26
2023-03-23T11:05:39.909Z,11.39
2023-03-23T11:10:44.089Z,11.24
2023-03-23T11:15:48.222Z,11.04
2023-03-23T11:20:52.381Z,10.98
2023-03-23T11:25:57.009Z,10.79
2023-03-23T11:31:00.714Z,10.69
2023-03-23T11:36:04.913Z,10.71
2023-03-23T11:41:09.080Z,10.47
2023-03-23T11:46:13.202Z,10.42
2023-03-23T11:51:17.377Z,10.41
2023-03-23T11:56:21.554Z,10.41
2023-03-23T12:01:25.686Z,10.56
2023-03-23T12:06:29.822Z,10.80
2023-03-23T12:11:34.044Z,10.76
2023-03-23T12:16:38.158Z,10.77
2023-03-23T12:21:42.334Z,10.77
2023-03-23T12:26:46.468Z,10.95
2023-03-23T12:31:50.646Z,10.88
2023-03-23T12:36:54.845Z,10.85
2023-03-23T12:41:58.959Z,10.83
2023-03-23T12:47:01.253Z,10.80
2023-03-23T12:52:05.410Z,10.78
2023-03-23T12:57:09.559Z,10.78
2023-03-23T13:02:13.732Z,10.76
2023-03-23T13:07:16.018Z,10.76
2023-03-23T13:12:20.188Z,10.71
2023-03-23T13:17:24.328Z,10.71
2023-03-23T13:22:28.482Z,10.71
2023-03-23T13:27:32.659Z,10.95
2023-03-23T13:32:40.910Z,11.13
2023-03-23T13:37:40.937Z,11.50
2023-03-23T13:42:45.101Z,11.94
2023-03-23T13:47:49.278Z,11.94
2023-03-23T13:52:53.498Z,11.95
2023-03-23T13:57:57.663Z,11.90
2023-03-23T14:03:01.941Z,11.89
2023-03-23T14:08:05.942Z,11.95
2023-03-23T14:13:10.116Z,11.96
2023-03-23T14:18:14.240Z,12.06
2023-03-23T14:23:18.667Z,12.25
2023-03-23T14:28:22.555Z,12.11
2023-03-23T14:33:26.700Z,12.06
2023-03-23T14:38:30.881Z,12.06
2023-03-23T14:43:35.085Z,12.10
2023-03-23T14:48:39.219Z,12.69
2023-03-23T14:53:41.457Z,12.96
2023-03-23T14:58:45.653Z,12.83
2023-03-23T15:03:50.097Z,13.21
2023-03-23T15:08:52.051Z,13.02
2023-03-23T15:13:56.241Z,13.08
2023-03-23T15:19:00.402Z,13.41
2023-03-23T15:24:04.539Z,13.18
2023-03-23T15:29:08.715Z,13.38
2023-03-23T15:34:12.874Z,13.53
2023-03-23T15:39:17.053Z,13.47
2023-03-23T15:44:21.183Z,13.50
2023-03-23T15:49:25.382Z,13.77
2023-03-23T15:54:29.527Z,13.68
2023-03-23T15:59:33.713Z,13.67
2023-03-23T16:04:37.855Z,13.63
2023-03-23T16:09:42.032Z,13.59
2023-03-23T16:14:44.273Z,13.96
2023-03-23T16:19:48.441Z,14.56
2023-03-23T16:24:52.602Z,14.79
2023-03-23T16:30:03.895Z,14.93
2023-03-23T16:35:00.924Z,15.24
2023-03-23T16:40:05.035Z,15.05
2023-03-23T16:45:09.229Z,14.60
2023-03-23T16:50:11.493Z,14.36
2023-03-23T16:55:15.684Z,13.89
2023-03-23T17:00:19.787Z,13.46
2023-03-23T17:05:23.988Z,13.20
2023-03-23T17:10:28.140Z,13.05
2023-03-23T17:15:32.298Z,12.87
2023-03-23T17:20:36.437Z,12.77
2023-03-23T17:25:40.582Z,12.68
2023-03-23T17:30:44.763Z,12.56
2023-03-23T17:35:49.064Z,12.48
2023-03-23T17:40:53.110Z,12.41
2023-03-23T17:45:57.248Z,12.50
2023-03-23T17:51:01.430Z,12.53
2023-03-23T17:56:05.601Z,12.52
2023-03-23T18:01:09.764Z,12.61
2023-03-23T18:06:13.880Z,12.62
2023-03-23T18:11:18.053Z,12.60
2023-03-23T18:16:22.212Z,12.57
2023-03-23T18:21:26.388Z,12.53
2023-03-23T18:26:30.516Z,12.39
2023-03-23T18:31:34.747Z,12.36
2023-03-23T18:36:36.990Z,12.30
2023-03-23T18:41:41.133Z,12.21
2023-03-23T18:46:43.412Z,12.25
2023-03-23T18:51:47.549Z,12.15
2023-03-23T18:56:49.963Z,12.05
2023-03-23T19:01:54.093Z,12.00
2023-03-23T19:06:58.178Z,11.96
2023-03-23T19:12:02.345Z,12.02
2023-03-23T19:17:06.517Z,11.96
2023-03-23T19:22:10.638Z,11.94
2023-03-23T19:27:15.535Z,11.86
2023-03-23T19:32:18.958Z,11.72
2023-03-23T19:37:23.370Z,11.72
2023-03-23T19:42:27.297Z,11.57
2023-03-23T19:47:31.480Z,11.51
2023-03-23T19:52:35.715Z,11.44
2023-03-23T19:57:39.764Z,11.48
2023-03-23T20:02:43.970Z,11.48
2023-03-23T20:07:51.732Z,11.54
2023-03-23T20:12:52.249Z,11.60
2023-03-23T20:23:00.606Z,11.83
2023-03-23T20:28:04.784Z,11.87
2023-03-23T20:33:08.926Z,11.83
2023-03-23T20:38:13.071Z,11.81
2023-03-23T20:43:15.338Z,11.99
2023-03-23T20:48:19.486Z,12.05
2023-03-23T20:53:21.765Z,12.06
2023-03-23T20:58:25.939Z,12.10
2023-03-23T21:03:30.237Z,12.11
2023-03-23T21:08:34.254Z,12.15
2023-03-23T21:13:38.416Z,12.13
2023-03-23T21:18:42.554Z,12.26
2023-03-23T21:23:46.799Z,12.35
2023-03-23T21:28:50.937Z,12.46
2023-03-23T21:33:55.035Z,12.53
2023-03-23T21:38:59.234Z,12.56
2023-03-23T21:44:03.362Z,12.53
2023-03-23T21:49:07.542Z,12.48
2023-03-23T21:54:11.749Z,12.39
2023-03-23T21:59:15.841Z,12.33
2023-03-23T22:04:19.997Z,12.19
2023-03-23T22:09:24.145Z,12.12
2023-03-23T22:14:28.329Z,12.02
2023-03-23T22:19:32.455Z,11.95
2023-03-23T22:24:36.608Z,11.91
2023-03-23T22:29:40.794Z,11.89
2023-03-23T22:34:44.933Z,11.83
2023-03-23T22:39:47.234Z,11.79
2023-03-23T22:49:55.566Z,11.74
2023-03-23T22:54:59.697Z,11.72
2023-03-23T23:00:03.912Z,11.70
2023-03-23T23:05:08.035Z,11.64
2023-03-23T23:10:12.201Z,11.57
2023-03-23T23:15:16.374Z,11.48
2023-03-23T23:20:20.503Z,11.42
2023-03-23T23:25:24.690Z,11.36
2023-03-23T23:30:28.907Z,11.29
2023-03-23T23:35:33.065Z,11.28
2023-03-23T23:40:37.193Z,11.26
2023-03-23T23:45:41.367Z,11.20
2023-03-23T23:50:45.794Z,11.17
2023-03-23T23:55:49.760Z,11.20
